sensor_id;sensor_type;location;lat;lon;timestamp;temperature;humidity
16289;DHT22;26089;43.538;5.250;2022-10-16T00:00:48;17.00;99.90
16289;DHT22;26089;43.538;5.250;2022-10-16T00:03:15;17.00;99.90
16289;DHT22;26089;43.538;5.250;2022-10-16T00:05:43;17.00;99.90
16289;DHT22;26089;43.538;5.250;2022-10-16T00:08:11;16.90;99.90
16289;DHT22;26089;43.538;5.250;2022-10-16T00:10:39;16.90;99.90
16289;DHT22;26089;43.538;5.250;2022-10-16T00:13:08;16.90;99.90
16289;DHT22;26089;43.538;5.250;2022-10-16T00:15:36;16.80;99.90
16289;DHT22;26089;43.538;5.250;2022-10-16T00:18:05;16.80;99.90
16289;DHT22;26089;43.538;5.250;2022-10-16T00:20:34;16.80;99.90
16289;DHT22;26089;43.538;5.250;2022-10-16T00:23:02;16.70;99.90
16289;DHT22;26089;43.538;5.250;2022-10-16T00:25:29;16.70;99.90
16289;DHT22;26089;43.538;5.250;2022-10-16T00:27:58;16.70;99.90
16289;DHT22;26089;43.538;5.250;2022-10-16T00:30:27;16.70;99.90
16289;DHT22;26089;43.538;5.250;2022-10-16T00:32:54;16.70;99.90
16289;DHT22;26089;43.538;5.250;2022-10-16T00:35:21;16.80;99.90
16289;DHT22;26089;43.538;5.250;2022-10-16T00:37:48;16.80;99.90
16289;DHT22;26089;43.538;5.250;2022-10-16T00:40:16;16.80;99.90
16289;DHT22;26089;43.538;5.250;2022-10-16T00:42:43;16.80;99.90
16289;DHT22;26089;43.538;5.250;2022-10-16T00:45:10;16.80;99.90
16289;DHT22;26089;43.538;5.250;2022-10-16T00:47:41;16.70;99.90
16289;DHT22;26089;43.538;5.250;2022-10-16T00:50:17;16.70;99.90
16289;DHT22;26089;43.538;5.250;2022-10-16T00:52:47;16.70;99.90
16289;DHT22;26089;43.538;5.250;2022-10-16T00:55:15;16.70;99.90
16289;DHT22;26089;43.538;5.250;2022-10-16T00:57:43;16.70;99.90
16289;DHT22;26089;43.538;5.250;2022-10-16T01:00:17;16.70;99.90
16289;DHT22;26089;43.538;5.250;2022-10-16T01:02:52;16.70;99.90
16289;DHT22;26089;43.538;5.250;2022-10-16T01:05:20;16.60;99.90
16289;DHT22;26089;43.538;5.250;2022-10-16T01:07:53;16.70;99.90
16289;DHT22;26089;43.538;5.250;2022-10-16T01:10:27;16.70;99.90
16289;DHT22;26089;43.538;5.250;2022-10-16T01:13:00;16.70;99.90
16289;DHT22;26089;43.538;5.250;2022-10-16T01:15:32;16.70;99.90
16289;DHT22;26089;43.538;5.250;2022-10-16T01:18:05;16.70;99.90
16289;DHT22;26089;43.538;5.250;2022-10-16T01:20:37;16.70;99.90
16289;DHT22;26089;43.538;5.250;2022-10-16T01:23:19;16.70;99.90
16289;DHT22;26089;43.538;5.250;2022-10-16T01:26:14;16.70;99.90
16289;DHT22;26089;43.538;5.250;2022-10-16T01:28:52;16.70;99.90
16289;DHT22;26089;43.538;5.250;2022-10-16T01:31:25;16.70;99.90
16289;DHT22;26089;43.538;5.250;2022-10-16T01:33:58;16.70;99.90
16289;DHT22;26089;43.538;5.250;2022-10-16T01:36:31;16.60;99.90
16289;DHT22;26089;43.538;5.250;2022-10-16T01:39:01;16.60;99.90
16289;DHT22;26089;43.538;5.250;2022-10-16T01:41:33;16.60;99.90
16289;DHT22;26089;43.538;5.250;2022-10-16T01:44:06;16.50;99.90
16289;DHT22;26089;43.538;5.250;2022-10-16T01:46:37;16.50;99.90
16289;DHT22;26089;43.538;5.250;2022-10-16T01:49:06;16.50;99.90
16289;DHT22;26089;43.538;5.250;2022-10-16T01:51:36;16.40;99.90
16289;DHT22;26089;43.538;5.250;2022-10-16T01:54:05;16.40;99.90
16289;DHT22;26089;43.538;5.250;2022-10-16T01:56:34;16.40;99.90
16289;DHT22;26089;43.538;5.250;2022-10-16T01:59:07;16.40;99.90
16289;DHT22;26089;43.538;5.250;2022-10-16T02:01:39;16.30;99.90
16289;DHT22;26089;43.538;5.250;2022-10-16T02:04:11;16.40;99.90
16289;DHT22;26089;43.538;5.250;2022-10-16T02:06:38;16.50;99.90
16289;DHT22;26089;43.538;5.250;2022-10-16T02:09:05;16.50;99.90
16289;DHT22;26089;43.538;5.250;2022-10-16T02:11:32;16.60;99.90
16289;DHT22;26089;43.538;5.250;2022-10-16T02:14:02;16.60;99.90
16289;DHT22;26089;43.538;5.250;2022-10-16T02:16:37;16.70;99.90
16289;DHT22;26089;43.538;5.250;2022-10-16T02:19:06;16.70;99.90
16289;DHT22;26089;43.538;5.250;2022-10-16T02:21:37;16.80;99.90
16289;DHT22;26089;43.538;5.250;2022-10-16T02:24:10;16.90;99.90
16289;DHT22;26089;43.538;5.250;2022-10-16T02:26:43;16.90;99.90
16289;DHT22;26089;43.538;5.250;2022-10-16T02:29:15;17.00;99.90
16289;DHT22;26089;43.538;5.250;2022-10-16T02:31:47;17.00;99.90
16289;DHT22;26089;43.538;5.250;2022-10-16T02:34:18;17.10;99.90
16289;DHT22;26089;43.538;5.250;2022-10-16T02:36:48;17.10;99.90
16289;DHT22;26089;43.538;5.250;2022-10-16T02:39:17;17.10;99.90
16289;DHT22;26089;43.538;5.250;2022-10-16T02:41:45;17.10;99.90
16289;DHT22;26089;43.538;5.250;2022-10-16T02:44:12;17.10;99.90
16289;DHT22;26089;43.538;5.250;2022-10-16T02:46:39;17.20;99.90
16289;DHT22;26089;43.538;5.250;2022-10-16T02:49:07;17.20;99.90
16289;DHT22;26089;43.538;5.250;2022-10-16T02:51:34;17.20;99.90
16289;DHT22;26089;43.538;5.250;2022-10-16T02:54:01;17.20;99.90
16289;DHT22;26089;43.538;5.250;2022-10-16T02:56:28;17.20;99.90
16289;DHT22;26089;43.538;5.250;2022-10-16T02:58:56;17.30;99.90
16289;DHT22;26089;43.538;5.250;2022-10-16T03:01:24;17.30;99.90
16289;DHT22;26089;43.538;5.250;2022-10-16T03:03:51;17.30;99.90
16289;DHT22;26089;43.538;5.250;2022-10-16T03:06:19;17.30;99.90
16289;DHT22;26089;43.538;5.250;2022-10-16T03:08:46;17.30;99.90
16289;DHT22;26089;43.538;5.250;2022-10-16T03:11:13;17.30;99.90
16289;DHT22;26089;43.538;5.250;2022-10-16T03:13:40;17.40;99.90
16289;DHT22;26089;43.538;5.250;2022-10-16T03:16:07;17.40;99.90
16289;DHT22;26089;43.538;5.250;2022-10-16T03:18:34;17.30;99.90
16289;DHT22;26089;43.538;5.250;2022-10-16T03:21:01;17.30;99.90
16289;DHT22;26089;43.538;5.250;2022-10-16T03:23:30;17.30;99.90
16289;DHT22;26089;43.538;5.250;2022-10-16T03:25:57;17.30;99.90
16289;DHT22;26089;43.538;5.250;2022-10-16T03:28:24;17.20;99.90
16289;DHT22;26089;43.538;5.250;2022-10-16T03:30:51;17.20;99.90
16289;DHT22;26089;43.538;5.250;2022-10-16T03:33:18;17.20;99.90
16289;DHT22;26089;43.538;5.250;2022-10-16T03:35:51;17.20;99.90
16289;DHT22;26089;43.538;5.250;2022-10-16T03:38:18;17.20;99.90
16289;DHT22;26089;43.538;5.250;2022-10-16T03:40:47;17.20;99.90
16289;DHT22;26089;43.538;5.250;2022-10-16T03:43:14;17.20;99.90
16289;DHT22;26089;43.538;5.250;2022-10-16T03:45:41;17.10;99.90
16289;DHT22;26089;43.538;5.250;2022-10-16T03:48:08;17.10;99.90
16289;DHT22;26089;43.538;5.250;2022-10-16T03:50:35;17.00;99.90
16289;DHT22;26089;43.538;5.250;2022-10-16T03:53:03;16.90;99.90
16289;DHT22;26089;43.538;5.250;2022-10-16T03:55:30;16.80;99.90
16289;DHT22;26089;43.538;5.250;2022-10-16T03:57:58;16.80;99.90
16289;DHT22;26089;43.538;5.250;2022-10-16T04:00:25;16.80;99.90
16289;DHT22;26089;43.538;5.250;2022-10-16T04:02:52;16.70;99.90
16289;DHT22;26089;43.538;5.250;2022-10-16T04:05:20;16.70;99.90
16289;DHT22;26089;43.538;5.250;2022-10-16T04:07:47;16.70;99.90
16289;DHT22;26089;43.538;5.250;2022-10-16T04:10:14;16.60;99.90
16289;DHT22;26089;43.538;5.250;2022-10-16T04:12:41;16.70;99.90
16289;DHT22;26089;43.538;5.250;2022-10-16T04:15:09;16.70;99.90
16289;DHT22;26089;43.538;5.250;2022-10-16T04:17:36;16.60;99.90
16289;DHT22;26089;43.538;5.250;2022-10-16T04:20:04;16.60;99.90
16289;DHT22;26089;43.538;5.250;2022-10-16T04:22:32;16.60;99.90
16289;DHT22;26089;43.538;5.250;2022-10-16T04:24:59;16.70;99.90
16289;DHT22;26089;43.538;5.250;2022-10-16T04:27:26;16.70;99.90
16289;DHT22;26089;43.538;5.250;2022-10-16T04:29:54;16.70;99.90
16289;DHT22;26089;43.538;5.250;2022-10-16T04:32:22;16.70;99.90
16289;DHT22;26089;43.538;5.250;2022-10-16T04:34:49;16.60;99.90
16289;DHT22;26089;43.538;5.250;2022-10-16T04:37:16;16.60;99.90
16289;DHT22;26089;43.538;5.250;2022-10-16T04:39:43;16.60;99.90
16289;DHT22;26089;43.538;5.250;2022-10-16T04:42:10;16.50;99.90
16289;DHT22;26089;43.538;5.250;2022-10-16T04:44:37;16.50;99.90
16289;DHT22;26089;43.538;5.250;2022-10-16T04:47:04;16.60;99.90
16289;DHT22;26089;43.538;5.250;2022-10-16T04:49:33;16.60;99.90
16289;DHT22;26089;43.538;5.250;2022-10-16T04:52:00;16.70;99.90
16289;DHT22;26089;43.538;5.250;2022-10-16T04:54:27;16.70;99.90
16289;DHT22;26089;43.538;5.250;2022-10-16T04:56:54;16.80;99.90
16289;DHT22;26089;43.538;5.250;2022-10-16T04:59:21;16.90;99.90
16289;DHT22;26089;43.538;5.250;2022-10-16T05:01:48;17.00;99.90
16289;DHT22;26089;43.538;5.250;2022-10-16T05:04:15;16.90;99.90
16289;DHT22;26089;43.538;5.250;2022-10-16T05:06:44;16.90;99.90
16289;DHT22;26089;43.538;5.250;2022-10-16T05:09:11;16.90;99.90
16289;DHT22;26089;43.538;5.250;2022-10-16T05:11:38;16.80;99.90
16289;DHT22;26089;43.538;5.250;2022-10-16T05:14:05;16.80;99.90
16289;DHT22;26089;43.538;5.250;2022-10-16T05:16:32;16.70;99.90
16289;DHT22;26089;43.538;5.250;2022-10-16T05:18:59;16.60;99.90
16289;DHT22;26089;43.538;5.250;2022-10-16T05:21:26;16.60;99.90
16289;DHT22;26089;43.538;5.250;2022-10-16T05:23:54;16.60;99.90
16289;DHT22;26089;43.538;5.250;2022-10-16T05:26:22;16.50;99.90
16289;DHT22;26089;43.538;5.250;2022-10-16T05:28:49;16.50;99.90
16289;DHT22;26089;43.538;5.250;2022-10-16T05:31:16;16.50;99.90
16289;DHT22;26089;43.538;5.250;2022-10-16T05:33:43;16.60;99.90
16289;DHT22;26089;43.538;5.250;2022-10-16T05:36:11;16.60;99.90
16289;DHT22;26089;43.538;5.250;2022-10-16T05:38:38;16.60;99.90
16289;DHT22;26089;43.538;5.250;2022-10-16T05:41:07;16.60;99.90
16289;DHT22;26089;43.538;5.250;2022-10-16T05:43:34;16.60;99.90
16289;DHT22;26089;43.538;5.250;2022-10-16T05:46:03;16.60;99.90
16289;DHT22;26089;43.538;5.250;2022-10-16T05:48:31;16.60;99.90
16289;DHT22;26089;43.538;5.250;2022-10-16T05:50:59;16.60;99.90
16289;DHT22;26089;43.538;5.250;2022-10-16T05:53:28;16.60;99.90
16289;DHT22;26089;43.538;5.250;2022-10-16T05:55:55;16.70;99.90
16289;DHT22;26089;43.538;5.250;2022-10-16T05:58:25;16.70;99.90
16289;DHT22;26089;43.538;5.250;2022-10-16T06:00:56;16.70;99.90
16289;DHT22;26089;43.538;5.250;2022-10-16T06:03:23;16.70;99.90
16289;DHT22;26089;43.538;5.250;2022-10-16T06:05:50;16.80;99.90
16289;DHT22;26089;43.538;5.250;2022-10-16T06:08:18;16.80;99.90
16289;DHT22;26089;43.538;5.250;2022-10-16T06:10:47;16.90;99.90
16289;DHT22;26089;43.538;5.250;2022-10-16T06:13:14;16.90;99.90
16289;DHT22;26089;43.538;5.250;2022-10-16T06:15:43;16.90;99.90
16289;DHT22;26089;43.538;5.250;2022-10-16T06:18:10;17.00;99.90
16289;DHT22;26089;43.538;5.250;2022-10-16T06:20:37;17.00;99.90
16289;DHT22;26089;43.538;5.250;2022-10-16T06:23:04;17.00;99.90
16289;DHT22;26089;43.538;5.250;2022-10-16T06:25:32;17.10;99.90
16289;DHT22;26089;43.538;5.250;2022-10-16T06:27:59;17.10;99.90
16289;DHT22;26089;43.538;5.250;2022-10-16T06:30:26;17.20;99.90
16289;DHT22;26089;43.538;5.250;2022-10-16T06:32:54;17.20;99.90
16289;DHT22;26089;43.538;5.250;2022-10-16T06:35:21;17.20;99.90
16289;DHT22;26089;43.538;5.250;2022-10-16T06:37:49;17.30;99.90
16289;DHT22;26089;43.538;5.250;2022-10-16T06:40:16;17.30;99.90
16289;DHT22;26089;43.538;5.250;2022-10-16T06:42:43;17.30;99.90
16289;DHT22;26089;43.538;5.250;2022-10-16T06:45:10;17.30;99.90
16289;DHT22;26089;43.538;5.250;2022-10-16T06:47:38;17.30;99.90
16289;DHT22;26089;43.538;5.250;2022-10-16T06:50:07;17.30;99.90
16289;DHT22;26089;43.538;5.250;2022-10-16T06:52:34;17.40;99.90
16289;DHT22;26089;43.538;5.250;2022-10-16T06:55:01;17.40;99.90
16289;DHT22;26089;43.538;5.250;2022-10-16T06:57:29;17.50;99.90
16289;DHT22;26089;43.538;5.250;2022-10-16T06:59:56;17.50;99.90
16289;DHT22;26089;43.538;5.250;2022-10-16T07:02:23;17.50;99.90
16289;DHT22;26089;43.538;5.250;2022-10-16T07:04:50;17.50;99.90
16289;DHT22;26089;43.538;5.250;2022-10-16T07:07:18;17.50;99.90
16289;DHT22;26089;43.538;5.250;2022-10-16T07:09:45;17.60;99.90
16289;DHT22;26089;43.538;5.250;2022-10-16T07:12:12;17.60;99.90
16289;DHT22;26089;43.538;5.250;2022-10-16T07:14:39;17.70;99.90
16289;DHT22;26089;43.538;5.250;2022-10-16T07:17:06;17.80;99.90
16289;DHT22;26089;43.538;5.250;2022-10-16T07:19:33;17.80;99.90
16289;DHT22;26089;43.538;5.250;2022-10-16T07:22:00;17.80;99.90
16289;DHT22;26089;43.538;5.250;2022-10-16T07:24:30;17.90;99.90
16289;DHT22;26089;43.538;5.250;2022-10-16T07:26:57;17.90;99.90
16289;DHT22;26089;43.538;5.250;2022-10-16T07:29:24;18.00;99.90
16289;DHT22;26089;43.538;5.250;2022-10-16T07:31:51;18.10;99.90
16289;DHT22;26089;43.538;5.250;2022-10-16T07:34:19;18.10;99.90
16289;DHT22;26089;43.538;5.250;2022-10-16T07:36:48;18.20;99.90
16289;DHT22;26089;43.538;5.250;2022-10-16T07:39:15;18.20;99.90
16289;DHT22;26089;43.538;5.250;2022-10-16T07:41:43;18.30;99.90
16289;DHT22;26089;43.538;5.250;2022-10-16T07:44:10;18.40;99.90
16289;DHT22;26089;43.538;5.250;2022-10-16T07:46:37;18.50;99.90
16289;DHT22;26089;43.538;5.250;2022-10-16T07:49:04;18.60;99.90
16289;DHT22;26089;43.538;5.250;2022-10-16T07:51:32;18.80;99.90
16289;DHT22;26089;43.538;5.250;2022-10-16T07:53:59;18.90;99.90
16289;DHT22;26089;43.538;5.250;2022-10-16T07:56:26;19.00;99.90
16289;DHT22;26089;43.538;5.250;2022-10-16T07:58:54;19.10;99.90
16289;DHT22;26089;43.538;5.250;2022-10-16T08:01:22;19.20;99.90
16289;DHT22;26089;43.538;5.250;2022-10-16T08:03:50;19.30;99.90
16289;DHT22;26089;43.538;5.250;2022-10-16T08:06:19;19.40;99.90
16289;DHT22;26089;43.538;5.250;2022-10-16T08:08:47;19.50;99.90
16289;DHT22;26089;43.538;5.250;2022-10-16T08:11:14;19.60;99.90
16289;DHT22;26089;43.538;5.250;2022-10-16T08:13:42;19.70;99.90
16289;DHT22;26089;43.538;5.250;2022-10-16T08:16:10;19.80;99.90
16289;DHT22;26089;43.538;5.250;2022-10-16T08:18:39;19.90;99.90
16289;DHT22;26089;43.538;5.250;2022-10-16T08:21:07;20.10;99.90
16289;DHT22;26089;43.538;5.250;2022-10-16T08:23:38;20.50;99.90
16289;DHT22;26089;43.538;5.250;2022-10-16T08:26:07;21.50;99.90
16289;DHT22;26089;43.538;5.250;2022-10-16T08:28:34;22.20;99.90
16289;DHT22;26089;43.538;5.250;2022-10-16T08:31:06;23.00;99.90
16289;DHT22;26089;43.538;5.250;2022-10-16T08:33:35;23.90;99.90
16289;DHT22;26089;43.538;5.250;2022-10-16T08:36:03;24.20;99.90
16289;DHT22;26089;43.538;5.250;2022-10-16T08:38:30;24.30;99.90
16289;DHT22;26089;43.538;5.250;2022-10-16T08:41:17;24.20;99.90
16289;DHT22;26089;43.538;5.250;2022-10-16T08:44:00;24.30;99.90
16289;DHT22;26089;43.538;5.250;2022-10-16T08:46:42;24.30;99.90
16289;DHT22;26089;43.538;5.250;2022-10-16T08:49:13;24.60;99.90
16289;DHT22;26089;43.538;5.250;2022-10-16T08:51:40;24.70;99.90
16289;DHT22;26089;43.538;5.250;2022-10-16T08:54:21;24.60;99.90
16289;DHT22;26089;43.538;5.250;2022-10-16T08:56:49;24.10;99.90
16289;DHT22;26089;43.538;5.250;2022-10-16T08:59:17;23.70;99.90
16289;DHT22;26089;43.538;5.250;2022-10-16T09:01:46;23.50;99.90
16289;DHT22;26089;43.538;5.250;2022-10-16T09:04:45;23.50;99.90
16289;DHT22;26089;43.538;5.250;2022-10-16T09:07:20;23.60;99.90
16289;DHT22;26089;43.538;5.250;2022-10-16T09:10:06;23.70;99.90
16289;DHT22;26089;43.538;5.250;2022-10-16T09:12:39;23.70;99.90
16289;DHT22;26089;43.538;5.250;2022-10-16T09:15:17;23.80;99.90
16289;DHT22;26089;43.538;5.250;2022-10-16T09:17:54;23.80;99.90
16289;DHT22;26089;43.538;5.250;2022-10-16T09:20:30;23.90;99.90
16289;DHT22;26089;43.538;5.250;2022-10-16T09:23:10;24.00;99.90
16289;DHT22;26089;43.538;5.250;2022-10-16T09:25:40;24.10;99.90
16289;DHT22;26089;43.538;5.250;2022-10-16T09:28:08;23.90;99.90
16289;DHT22;26089;43.538;5.250;2022-10-16T09:30:37;23.90;99.90
16289;DHT22;26089;43.538;5.250;2022-10-16T09:33:05;24.00;99.90
16289;DHT22;26089;43.538;5.250;2022-10-16T09:35:37;24.10;99.90
16289;DHT22;26089;43.538;5.250;2022-10-16T09:38:05;24.30;99.90
16289;DHT22;26089;43.538;5.250;2022-10-16T09:40:34;24.50;99.90
16289;DHT22;26089;43.538;5.250;2022-10-16T09:43:19;24.60;99.90
16289;DHT22;26089;43.538;5.250;2022-10-16T09:45:54;24.70;99.90
16289;DHT22;26089;43.538;5.250;2022-10-16T09:48:22;24.90;99.90
16289;DHT22;26089;43.538;5.250;2022-10-16T09:50:58;25.10;99.90
16289;DHT22;26089;43.538;5.250;2022-10-16T09:53:37;25.30;99.90
16289;DHT22;26089;43.538;5.250;2022-10-16T09:56:05;25.60;99.90
16289;DHT22;26089;43.538;5.250;2022-10-16T09:58:32;25.50;99.90
16289;DHT22;26089;43.538;5.250;2022-10-16T10:01:00;25.70;99.90
16289;DHT22;26089;43.538;5.250;2022-10-16T10:03:36;25.80;99.90
16289;DHT22;26089;43.538;5.250;2022-10-16T10:06:16;25.80;99.90
16289;DHT22;26089;43.538;5.250;2022-10-16T10:09:04;26.00;99.90
16289;DHT22;26089;43.538;5.250;2022-10-16T10:11:48;26.20;99.90
16289;DHT22;26089;43.538;5.250;2022-10-16T10:14:30;26.30;99.90
16289;DHT22;26089;43.538;5.250;2022-10-16T10:17:12;26.40;99.90
16289;DHT22;26089;43.538;5.250;2022-10-16T10:19:42;26.60;99.90
16289;DHT22;26089;43.538;5.250;2022-10-16T10:22:23;26.90;99.90
16289;DHT22;26089;43.538;5.250;2022-10-16T10:24:59;27.00;99.90
16289;DHT22;26089;43.538;5.250;2022-10-16T10:27:35;27.10;99.90
16289;DHT22;26089;43.538;5.250;2022-10-16T10:30:11;26.90;99.90
16289;DHT22;26089;43.538;5.250;2022-10-16T10:32:45;26.50;99.90
16289;DHT22;26089;43.538;5.250;2022-10-16T10:35:18;26.00;99.90
16289;DHT22;26089;43.538;5.250;2022-10-16T10:38:01;25.70;99.90
16289;DHT22;26089;43.538;5.250;2022-10-16T10:40:40;25.50;99.90
16289;DHT22;26089;43.538;5.250;2022-10-16T10:43:19;25.40;99.90
16289;DHT22;26089;43.538;5.250;2022-10-16T10:45:48;25.40;99.90
16289;DHT22;26089;43.538;5.250;2022-10-16T10:48:29;25.50;99.90
16289;DHT22;26089;43.538;5.250;2022-10-16T10:51:03;25.80;99.90
16289;DHT22;26089;43.538;5.250;2022-10-16T10:53:44;25.80;99.90
16289;DHT22;26089;43.538;5.250;2022-10-16T10:56:29;25.80;99.90
16289;DHT22;26089;43.538;5.250;2022-10-16T11:02:15;25.70;99.90
16289;DHT22;26089;43.538;5.250;2022-10-16T11:08:06;27.50;99.90
16289;DHT22;26089;43.538;5.250;2022-10-16T11:10:44;28.20;99.90
16289;DHT22;26089;43.538;5.250;2022-10-16T11:13:21;28.40;99.90
16289;DHT22;26089;43.538;5.250;2022-10-16T11:15:53;27.80;99.90
16289;DHT22;26089;43.538;5.250;2022-10-16T11:18:24;27.80;99.90
16289;DHT22;26089;43.538;5.250;2022-10-16T11:20:56;27.40;99.90
16289;DHT22;26089;43.538;5.250;2022-10-16T11:23:26;26.90;99.90
16289;DHT22;26089;43.538;5.250;2022-10-16T11:26:00;27.00;99.90
16289;DHT22;26089;43.538;5.250;2022-10-16T11:28:31;26.80;99.90
16289;DHT22;26089;43.538;5.250;2022-10-16T11:31:03;27.70;99.90
16289;DHT22;26089;43.538;5.250;2022-10-16T11:33:37;28.50;99.90
16289;DHT22;26089;43.538;5.250;2022-10-16T11:36:11;28.90;99.90
16289;DHT22;26089;43.538;5.250;2022-10-16T11:38:45;28.30;99.90
16289;DHT22;26089;43.538;5.250;2022-10-16T11:41:20;27.80;99.90
16289;DHT22;26089;43.538;5.250;2022-10-16T11:43:56;27.20;99.90
16289;DHT22;26089;43.538;5.250;2022-10-16T11:46:26;27.60;99.90
16289;DHT22;26089;43.538;5.250;2022-10-16T11:48:58;27.70;99.90
16289;DHT22;26089;43.538;5.250;2022-10-16T11:51:33;28.50;99.90
16289;DHT22;26089;43.538;5.250;2022-10-16T11:54:07;29.10;99.90
16289;DHT22;26089;43.538;5.250;2022-10-16T11:56:38;28.90;99.90
16289;DHT22;26089;43.538;5.250;2022-10-16T11:59:08;28.30;99.90
16289;DHT22;26089;43.538;5.250;2022-10-16T12:01:46;28.10;99.90
16289;DHT22;26089;43.538;5.250;2022-10-16T12:04:23;27.70;99.90
16289;DHT22;26089;43.538;5.250;2022-10-16T12:06:57;27.90;99.90
16289;DHT22;26089;43.538;5.250;2022-10-16T12:09:27;28.60;99.90
16289;DHT22;26089;43.538;5.250;2022-10-16T12:11:56;28.60;99.90
16289;DHT22;26089;43.538;5.250;2022-10-16T12:14:35;28.80;99.90
16289;DHT22;26089;43.538;5.250;2022-10-16T12:17:22;28.80;99.90
16289;DHT22;26089;43.538;5.250;2022-10-16T12:19:59;28.00;99.90
16289;DHT22;26089;43.538;5.250;2022-10-16T12:22:28;27.40;99.90
16289;DHT22;26089;43.538;5.250;2022-10-16T12:24:56;27.20;99.90
16289;DHT22;26089;43.538;5.250;2022-10-16T12:27:28;28.00;99.90
16289;DHT22;26089;43.538;5.250;2022-10-16T12:29:57;28.70;99.90
16289;DHT22;26089;43.538;5.250;2022-10-16T12:32:29;29.20;99.90
16289;DHT22;26089;43.538;5.250;2022-10-16T12:34:58;29.10;99.90
16289;DHT22;26089;43.538;5.250;2022-10-16T12:37:27;29.40;99.90
16289;DHT22;26089;43.538;5.250;2022-10-16T12:39:56;29.40;99.90
16289;DHT22;26089;43.538;5.250;2022-10-16T12:42:34;29.80;99.90
16289;DHT22;26089;43.538;5.250;2022-10-16T12:45:12;30.30;99.90
16289;DHT22;26089;43.538;5.250;2022-10-16T12:47:48;30.60;99.90
16289;DHT22;26089;43.538;5.250;2022-10-16T12:50:25;30.60;99.90
16289;DHT22;26089;43.538;5.250;2022-10-16T12:52:52;30.50;99.90
16289;DHT22;26089;43.538;5.250;2022-10-16T12:55:21;30.60;99.90
16289;DHT22;26089;43.538;5.250;2022-10-16T12:58:03;30.30;99.90
16289;DHT22;26089;43.538;5.250;2022-10-16T13:00:43;30.40;99.90
16289;DHT22;26089;43.538;5.250;2022-10-16T13:03:34;30.40;99.90
16289;DHT22;26089;43.538;5.250;2022-10-16T13:06:15;30.40;99.90
16289;DHT22;26089;43.538;5.250;2022-10-16T13:09:02;29.60;99.90
16289;DHT22;26089;43.538;5.250;2022-10-16T13:11:44;29.40;99.90
16289;DHT22;26089;43.538;5.250;2022-10-16T13:14:42;30.00;99.90
16289;DHT22;26089;43.538;5.250;2022-10-16T13:17:22;29.70;99.90
16289;DHT22;26089;43.538;5.250;2022-10-16T13:19:58;29.30;99.90
16289;DHT22;26089;43.538;5.250;2022-10-16T13:22:33;29.40;99.90
16289;DHT22;26089;43.538;5.250;2022-10-16T13:25:17;29.40;99.90
16289;DHT22;26089;43.538;5.250;2022-10-16T13:27:50;29.70;99.90
16289;DHT22;26089;43.538;5.250;2022-10-16T13:30:23;29.60;99.90
16289;DHT22;26089;43.538;5.250;2022-10-16T13:33:00;29.30;99.90
16289;DHT22;26089;43.538;5.250;2022-10-16T13:35:28;29.70;99.90
16289;DHT22;26089;43.538;5.250;2022-10-16T13:38:12;29.80;99.90
16289;DHT22;26089;43.538;5.250;2022-10-16T13:40:50;29.90;99.90
16289;DHT22;26089;43.538;5.250;2022-10-16T13:43:18;29.40;99.90
16289;DHT22;26089;43.538;5.250;2022-10-16T13:45:58;28.90;99.90
16289;DHT22;26089;43.538;5.250;2022-10-16T13:48:25;28.80;99.90
16289;DHT22;26089;43.538;5.250;2022-10-16T13:51:00;28.70;99.90
16289;DHT22;26089;43.538;5.250;2022-10-16T13:53:29;28.70;99.90
16289;DHT22;26089;43.538;5.250;2022-10-16T13:55:56;28.70;99.90
16289;DHT22;26089;43.538;5.250;2022-10-16T13:58:25;28.50;99.90
16289;DHT22;26089;43.538;5.250;2022-10-16T14:00:56;28.30;99.90
16289;DHT22;26089;43.538;5.250;2022-10-16T14:03:24;28.10;99.90
16289;DHT22;26089;43.538;5.250;2022-10-16T14:05:53;28.10;99.90
16289;DHT22;26089;43.538;5.250;2022-10-16T14:08:21;28.00;99.90
16289;DHT22;26089;43.538;5.250;2022-10-16T14:10:50;27.60;99.90
16289;DHT22;26089;43.538;5.250;2022-10-16T14:13:19;27.80;99.90
16289;DHT22;26089;43.538;5.250;2022-10-16T14:15:50;27.50;99.90
16289;DHT22;26089;43.538;5.250;2022-10-16T14:18:22;27.50;99.90
16289;DHT22;26089;43.538;5.250;2022-10-16T14:20:50;27.60;99.90
16289;DHT22;26089;43.538;5.250;2022-10-16T14:23:22;27.60;99.90
16289;DHT22;26089;43.538;5.250;2022-10-16T14:25:49;27.50;99.90
16289;DHT22;26089;43.538;5.250;2022-10-16T14:28:18;27.60;99.90
16289;DHT22;26089;43.538;5.250;2022-10-16T14:30:50;27.60;99.90
16289;DHT22;26089;43.538;5.250;2022-10-16T14:33:24;27.20;99.90
16289;DHT22;26089;43.538;5.250;2022-10-16T14:36:03;27.20;99.90
16289;DHT22;26089;43.538;5.250;2022-10-16T14:38:32;27.10;99.90
16289;DHT22;26089;43.538;5.250;2022-10-16T14:40:59;27.00;99.90
16289;DHT22;26089;43.538;5.250;2022-10-16T14:43:32;27.00;99.90
16289;DHT22;26089;43.538;5.250;2022-10-16T14:46:02;27.10;99.90
16289;DHT22;26089;43.538;5.250;2022-10-16T14:48:31;27.00;99.90
16289;DHT22;26089;43.538;5.250;2022-10-16T14:50:58;26.90;99.90
16289;DHT22;26089;43.538;5.250;2022-10-16T14:53:25;26.90;99.90
16289;DHT22;26089;43.538;5.250;2022-10-16T14:55:53;26.80;99.90
16289;DHT22;26089;43.538;5.250;2022-10-16T14:58:21;26.80;99.90
16289;DHT22;26089;43.538;5.250;2022-10-16T15:00:49;26.90;99.90
16289;DHT22;26089;43.538;5.250;2022-10-16T15:03:16;26.60;99.90
16289;DHT22;26089;43.538;5.250;2022-10-16T15:05:44;26.30;99.90
16289;DHT22;26089;43.538;5.250;2022-10-16T15:08:11;26.30;99.90
16289;DHT22;26089;43.538;5.250;2022-10-16T15:10:40;26.30;99.90
16289;DHT22;26089;43.538;5.250;2022-10-16T15:13:11;26.20;99.90
16289;DHT22;26089;43.538;5.250;2022-10-16T15:15:42;26.10;99.90
16289;DHT22;26089;43.538;5.250;2022-10-16T15:18:09;26.00;99.90
16289;DHT22;26089;43.538;5.250;2022-10-16T15:20:38;25.90;99.90
16289;DHT22;26089;43.538;5.250;2022-10-16T15:23:13;25.70;99.90
16289;DHT22;26089;43.538;5.250;2022-10-16T15:25:43;25.60;99.90
16289;DHT22;26089;43.538;5.250;2022-10-16T15:28:11;25.40;99.90
16289;DHT22;26089;43.538;5.250;2022-10-16T15:30:38;25.20;99.90
16289;DHT22;26089;43.538;5.250;2022-10-16T15:33:11;25.10;99.90
16289;DHT22;26089;43.538;5.250;2022-10-16T15:35:39;24.90;99.90
16289;DHT22;26089;43.538;5.250;2022-10-16T15:38:09;24.90;99.90
16289;DHT22;26089;43.538;5.250;2022-10-16T15:40:37;24.80;99.90
16289;DHT22;26089;43.538;5.250;2022-10-16T15:43:05;24.70;99.90
16289;DHT22;26089;43.538;5.250;2022-10-16T15:45:32;24.70;99.90
16289;DHT22;26089;43.538;5.250;2022-10-16T15:47:59;24.60;99.90
16289;DHT22;26089;43.538;5.250;2022-10-16T15:50:26;24.50;99.90
16289;DHT22;26089;43.538;5.250;2022-10-16T15:52:53;24.50;99.90
16289;DHT22;26089;43.538;5.250;2022-10-16T15:55:22;24.40;99.90
16289;DHT22;26089;43.538;5.250;2022-10-16T15:57:49;24.30;99.90